createdAt,value
2022-08-07T00:00:47.172Z,8.87
2022-08-07T00:03:52.088Z,8.67
2022-08-07T00:06:56.730Z,8.70
2022-08-07T00:10:25.455Z,9.07
2022-08-07T00:13:25.896Z,8.40
2022-08-07T00:16:28.610Z,9.10
2022-08-07T00:20:00.514Z,8.90
2022-08-07T00:22:53.192Z,9.20
2022-08-07T00:26:01.521Z,9.13
2022-08-07T00:29:03.456Z,9.00
2022-08-07T00:32:07.790Z,9.10
2022-08-07T00:35:10.007Z,8.83
2022-08-07T00:38:11.589Z,8.63
2022-08-07T00:41:15.293Z,8.50
2022-08-07T00:44:17.220Z,9.23
2022-08-07T00:48:08.187Z,9.63
2022-08-07T00:50:46.630Z,9.40
2022-08-07T00:53:55.317Z,9.00
2022-08-07T00:56:57.728Z,9.77
2022-08-07T00:59:59.884Z,8.93
2022-08-07T01:03:01.628Z,9.83
2022-08-07T01:06:04.051Z,9.70
2022-08-07T01:09:05.681Z,9.50
2022-08-07T01:12:29.140Z,9.57
2022-08-07T01:16:00.688Z,9.77
2022-08-07T01:18:54.133Z,10.50
2022-08-07T01:21:57.191Z,10.47
2022-08-07T01:25:05.115Z,10.00
2022-08-07T01:28:25.848Z,9.67
2022-08-07T01:31:41.784Z,9.80
2022-08-07T01:34:49.157Z,10.30
2022-08-07T01:37:51.654Z,10.60
2022-08-07T01:40:55.002Z,10.27
2022-08-07T01:43:58.836Z,10.17
2022-08-07T01:47:14.488Z,10.23
2022-08-07T01:50:29.214Z,10.37
2022-08-07T01:54:09.279Z,10.53
2022-08-07T01:57:08.294Z,10.87
2022-08-07T02:00:13.693Z,10.83
2022-08-07T02:03:26.395Z,10.47
2022-08-07T02:06:38.117Z,11.13
2022-08-07T02:09:52.876Z,9.97
2022-08-07T02:12:59.667Z,10.80
2022-08-07T02:16:08.387Z,10.87
2022-08-07T02:20:05.035Z,10.43
2022-08-07T02:22:41.367Z,10.63
2022-08-07T02:26:30.506Z,10.33
2022-08-07T02:29:13.700Z,11.17
2022-08-07T02:32:18.720Z,10.97
2022-08-07T02:36:29.539Z,11.67
2022-08-07T02:38:50.708Z,10.10
2022-08-07T02:41:56.461Z,10.40
2022-08-07T02:45:57.588Z,10.20
2022-08-07T02:48:25.799Z,9.97
2022-08-07T02:51:41.906Z,10.70
2022-08-07T02:54:52.212Z,10.07
2022-08-07T02:57:59.791Z,10.80
2022-08-07T03:01:03.144Z,10.83
2022-08-07T03:04:12.514Z,10.50
2022-08-07T03:07:16.289Z,10.83
2022-08-07T03:10:25.300Z,10.90
2022-08-07T03:13:27.763Z,11.13
2022-08-07T03:16:33.737Z,11.10
2022-08-07T03:19:36.980Z,10.50
2022-08-07T03:22:41.830Z,10.57
2022-08-07T03:25:58.096Z,11.07
2022-08-07T03:29:02.123Z,10.57
2022-08-07T03:32:08.309Z,11.27
2022-08-07T03:35:17.988Z,11.00
2022-08-07T03:38:29.920Z,10.60
2022-08-07T03:41:41.711Z,11.20
2022-08-07T03:44:53.252Z,10.47
2022-08-07T03:47:57.280Z,10.23
2022-08-07T03:51:02.056Z,10.43
2022-08-07T03:54:35.819Z,10.70
2022-08-07T03:58:17.978Z,9.53
2022-08-07T04:01:00.249Z,10.67
2022-08-07T04:04:05.633Z,10.23
2022-08-07T04:07:17.468Z,10.60
2022-08-07T04:10:22.104Z,10.60
2022-08-07T04:13:27.727Z,11.20
2022-08-07T04:16:32.270Z,11.07
2022-08-07T04:19:52.781Z,10.73
2022-08-07T04:23:01.963Z,10.43
2022-08-07T04:26:11.686Z,10.43
2022-08-07T04:29:14.301Z,10.73
2022-08-07T04:32:18.826Z,10.10
2022-08-07T04:35:37.406Z,10.10
2022-08-07T04:38:44.494Z,9.93
2022-08-07T04:41:50.349Z,9.67
2022-08-07T04:45:02.883Z,9.60
2022-08-07T04:48:13.062Z,9.70
2022-08-07T04:51:33.783Z,9.17
2022-08-07T04:54:54.439Z,9.70
2022-08-07T04:58:16.000Z,9.80
2022-08-07T05:01:30.189Z,9.90
2022-08-07T05:04:43.899Z,10.50
2022-08-07T05:08:02.277Z,9.87
2022-08-07T05:11:10.124Z,9.47
2022-08-07T05:14:53.262Z,9.77
2022-08-07T05:17:55.270Z,12.20
2022-08-07T05:20:59.497Z,9.53
2022-08-07T05:24:04.353Z,9.90
2022-08-07T05:28:01.874Z,10.37
2022-08-07T05:30:33.073Z,9.13
2022-08-07T05:33:38.722Z,9.23
2022-08-07T05:36:48.851Z,8.90
2022-08-07T05:40:18.903Z,9.97
2022-08-07T05:43:49.771Z,8.27
2022-08-07T05:46:44.632Z,9.13
2022-08-07T05:49:48.388Z,9.00
2022-08-07T05:52:52.909Z,9.43
2022-08-07T05:56:02.314Z,8.93
2022-08-07T05:59:06.233Z,8.87
2022-08-07T06:02:09.279Z,8.80
2022-08-07T06:05:15.763Z,9.80
2022-08-07T06:08:31.291Z,8.30
2022-08-07T06:11:34.595Z,7.90
2022-08-07T06:14:37.681Z,7.78
2022-08-07T06:17:41.324Z,7.80
2022-08-07T06:22:15.115Z,7.18
2022-08-07T06:24:50.746Z,9.98
2022-08-07T06:27:59.579Z,17.08
2022-08-07T06:31:01.516Z,7.70
2022-08-07T06:34:05.575Z,7.60
2022-08-07T06:37:07.172Z,7.60
2022-08-07T06:40:20.024Z,7.47
2022-08-07T06:43:26.690Z,7.82
2022-08-07T06:46:53.172Z,8.00
2022-08-07T06:50:03.986Z,7.88
2022-08-07T06:53:18.651Z,8.68
2022-08-07T06:56:48.442Z,7.90
2022-08-07T07:00:12.467Z,8.10
2022-08-07T07:03:26.320Z,8.23
2022-08-07T07:07:00.385Z,8.05
2022-08-07T07:10:02.983Z,8.82
2022-08-07T07:13:14.573Z,8.77
2022-08-07T07:16:19.800Z,9.05
2022-08-07T07:19:55.479Z,8.43
2022-08-07T07:24:05.320Z,8.68
2022-08-07T07:26:32.017Z,8.90
2022-08-07T07:29:56.956Z,8.25
2022-08-07T07:32:55.067Z,7.80
2022-08-07T07:36:04.900Z,7.63
2022-08-07T07:39:07.864Z,7.22
2022-08-07T07:42:13.950Z,6.32
2022-08-07T07:45:24.503Z,6.47
2022-08-07T07:48:43.010Z,6.07
2022-08-07T07:51:58.270Z,6.45
2022-08-07T07:55:01.763Z,6.45
2022-08-07T07:58:05.924Z,6.03
2022-08-07T08:02:03.563Z,5.68
2022-08-07T08:04:30.868Z,5.40
2022-08-07T08:07:35.705Z,5.22
2022-08-07T08:10:44.825Z,5.85
2022-08-07T08:13:53.827Z,4.88
2022-08-07T08:17:01.186Z,7.00
2022-08-07T08:20:23.892Z,6.28
2022-08-07T08:23:49.888Z,5.60
2022-08-07T08:27:05.947Z,5.57
2022-08-07T08:30:14.282Z,5.32
2022-08-07T08:33:20.511Z,5.38
2022-08-07T08:36:29.559Z,5.63
2022-08-07T08:39:39.624Z,5.72
2022-08-07T08:43:00.457Z,5.50
2022-08-07T08:46:06.556Z,5.50
2022-08-07T08:49:33.165Z,5.22
2022-08-07T08:52:40.889Z,5.07
2022-08-07T08:56:04.938Z,5.22
2022-08-07T08:59:25.518Z,5.55
2022-08-07T09:02:40.487Z,5.10
2022-08-07T09:05:48.045Z,8.43
2022-08-07T09:09:00.185Z,5.30
2022-08-07T09:12:30.174Z,5.20
2022-08-07T09:16:24.060Z,5.72
2022-08-07T09:18:59.033Z,6.50
2022-08-07T09:22:23.133Z,6.80
2022-08-07T09:25:53.413Z,7.50
2022-08-07T09:30:05.064Z,6.80
2022-08-07T09:32:26.412Z,6.97
2022-08-07T09:36:04.387Z,7.18
2022-08-07T09:39:27.505Z,6.57
2022-08-07T09:42:54.403Z,6.97
2022-08-07T09:47:23.983Z,7.47
2022-08-07T09:50:02.026Z,7.07
2022-08-07T09:53:07.522Z,7.63
2022-08-07T09:56:19.663Z,8.00
2022-08-07T09:59:46.248Z,8.65
2022-08-07T10:04:05.432Z,7.90
2022-08-07T10:06:55.892Z,8.57
2022-08-07T10:10:03.350Z,9.30
2022-08-07T10:13:55.192Z,10.18
2022-08-07T10:16:45.323Z,9.77
2022-08-07T10:19:47.513Z,9.57
2022-08-07T10:23:07.800Z,9.85
2022-08-07T10:26:30.735Z,9.70
2022-08-07T10:29:45.637Z,11.20
2022-08-07T10:32:54.238Z,10.45
2022-08-07T10:36:17.169Z,10.75
2022-08-07T10:39:41.386Z,11.30
2022-08-07T10:42:54.148Z,11.30
2022-08-07T10:45:58.745Z,12.33
2022-08-07T10:49:13.719Z,11.23
2022-08-07T10:52:19.096Z,10.73
2022-08-07T10:55:36.901Z,10.48
2022-08-07T10:58:47.958Z,10.85
2022-08-07T11:02:27.667Z,10.40
2022-08-07T11:05:54.756Z,10.10
2022-08-07T11:09:03.864Z,10.52
2022-08-07T11:12:31.811Z,10.85
2022-08-07T11:15:39.677Z,10.93
2022-08-07T11:18:41.441Z,11.18
2022-08-07T11:21:46.736Z,12.73
2022-08-07T11:25:00.260Z,11.07
2022-08-07T11:28:17.488Z,11.00
2022-08-07T11:31:24.921Z,11.02
2022-08-07T11:34:40.868Z,11.57
2022-08-07T11:37:57.823Z,11.65
2022-08-07T11:41:22.283Z,11.57
2022-08-07T11:44:37.257Z,11.73
2022-08-07T11:47:58.961Z,10.95
2022-08-07T11:51:41.644Z,11.25
2022-08-07T11:54:55.833Z,12.07
2022-08-07T11:58:16.673Z,12.07
2022-08-07T12:01:19.927Z,12.38
2022-08-07T12:04:46.021Z,12.80
2022-08-07T12:07:53.801Z,12.68
2022-08-07T12:11:20.778Z,11.82
2022-08-07T12:14:29.740Z,12.70
2022-08-07T12:17:59.782Z,12.30
2022-08-07T12:21:14.952Z,12.70
2022-08-07T12:24:37.834Z,12.70
2022-08-07T12:28:08.872Z,13.05
2022-08-07T12:31:09.285Z,12.55
2022-08-07T12:34:11.610Z,12.15
2022-08-07T12:37:17.035Z,13.18
2022-08-07T12:44:02.703Z,12.43
2022-08-07T12:47:10.990Z,13.30
2022-08-07T12:50:39.564Z,13.27
2022-08-07T12:54:03.155Z,18.98
2022-08-07T12:57:19.441Z,15.60
2022-08-07T13:00:32.793Z,10.07
2022-08-07T13:04:04.666Z,12.80
2022-08-07T13:08:11.975Z,10.93
2022-08-07T13:11:31.333Z,11.17
2022-08-07T13:15:03.467Z,11.57
2022-08-07T13:18:26.089Z,12.67
2022-08-07T13:21:51.072Z,14.97
2022-08-07T13:24:55.308Z,15.33
2022-08-07T13:28:10.882Z,15.33
2022-08-07T13:31:32.071Z,15.27
2022-08-07T13:34:48.568Z,16.50
2022-08-07T13:38:11.141Z,16.43
2022-08-07T13:41:13.982Z,14.33
2022-08-07T13:44:26.162Z,15.10
2022-08-07T13:47:29.266Z,14.90
2022-08-07T13:51:02.056Z,12.37
2022-08-07T13:54:09.117Z,13.57
2022-08-07T13:57:25.182Z,12.93
2022-08-07T14:00:35.809Z,13.77
2022-08-07T14:04:05.411Z,12.40
2022-08-07T14:07:11.549Z,11.70
2022-08-07T14:10:21.727Z,11.80
2022-08-07T14:13:33.845Z,11.40
2022-08-07T14:16:39.073Z,10.73
2022-08-07T14:20:42.516Z,10.90
2022-08-07T14:23:31.359Z,11.47
2022-08-07T14:26:50.287Z,10.93
2022-08-07T14:30:05.251Z,13.50
2022-08-07T14:33:14.892Z,11.23
2022-08-07T14:36:17.329Z,10.77
2022-08-07T14:40:17.213Z,11.33
2022-08-07T14:43:00.979Z,11.50
2022-08-07T14:46:04.329Z,12.67
2022-08-07T14:52:33.411Z,10.03
2022-08-07T14:55:47.925Z,9.53
2022-08-07T14:59:03.163Z,9.40
2022-08-07T15:02:31.794Z,9.80
2022-08-07T15:05:37.621Z,10.27
2022-08-07T15:09:02.058Z,10.63
2022-08-07T15:12:30.569Z,10.90
2022-08-07T15:15:43.912Z,10.30
2022-08-07T15:18:55.942Z,9.30
2022-08-07T15:22:05.715Z,10.63
2022-08-07T15:25:20.422Z,13.53
2022-08-07T15:28:35.039Z,13.57
2022-08-07T15:32:01.958Z,12.37
2022-08-07T15:35:04.018Z,12.77
2022-08-07T15:42:43.668Z,13.07
2022-08-07T15:44:52.394Z,13.50
2022-08-07T15:48:02.059Z,11.93
2022-08-07T15:51:10.055Z,12.90
2022-08-07T15:54:15.142Z,12.57
2022-08-07T15:57:27.924Z,13.60
2022-08-07T16:00:42.900Z,13.17
2022-08-07T16:03:55.696Z,14.40
2022-08-07T16:07:00.829Z,15.43
2022-08-07T16:10:14.766Z,14.37
2022-08-07T16:13:57.874Z,12.03
2022-08-07T16:16:57.176Z,12.50
2022-08-07T16:20:08.585Z,12.30
2022-08-07T16:23:53.542Z,11.60
2022-08-07T16:27:05.979Z,11.77
2022-08-07T16:30:31.160Z,11.27
2022-08-07T16:34:03.017Z,11.10
2022-08-07T16:38:06.207Z,11.67
2022-08-07T16:40:57.166Z,12.07
2022-08-07T16:44:46.046Z,11.67
2022-08-07T16:47:51.179Z,11.90
2022-08-07T16:51:51.812Z,12.03
2022-08-07T16:54:55.067Z,11.87
2022-08-07T16:58:01.863Z,11.83
2022-08-07T17:01:18.152Z,11.53
2022-08-07T17:04:37.038Z,12.00
2022-08-07T17:07:58.184Z,12.73
2022-08-07T17:11:04.697Z,12.97
2022-08-07T17:14:19.107Z,13.13
2022-08-07T17:17:43.899Z,12.97
2022-08-07T17:20:49.700Z,13.17
2022-08-07T17:24:03.143Z,13.17
2022-08-07T17:27:20.147Z,13.43
2022-08-07T17:30:27.301Z,14.77
2022-08-07T17:34:10.286Z,13.67
2022-08-07T17:37:09.677Z,13.67
2022-08-07T17:40:36.622Z,12.60
2022-08-07T17:44:01.698Z,12.83
2022-08-07T17:47:38.485Z,13.80
2022-08-07T17:51:01.695Z,13.50
2022-08-07T17:54:06.037Z,13.00
2022-08-07T17:57:20.560Z,13.30
2022-08-07T18:00:33.077Z,13.40
2022-08-07T18:04:04.673Z,14.37
2022-08-07T18:07:21.080Z,14.77
2022-08-07T18:10:33.306Z,14.13
2022-08-07T18:13:40.745Z,15.97
2022-08-07T18:16:58.308Z,14.80
2022-08-07T18:21:07.960Z,13.77
2022-08-07T18:23:57.203Z,14.77
2022-08-07T18:27:09.109Z,14.43
2022-08-07T18:30:32.282Z,14.33
2022-08-07T18:33:55.238Z,13.93
2022-08-07T18:38:58.724Z,13.80
2022-08-07T18:41:05.125Z,13.33
2022-08-07T18:44:28.929Z,14.20
2022-08-07T18:47:44.369Z,14.13
2022-08-07T18:50:49.850Z,13.60
2022-08-07T18:54:30.605Z,14.73
2022-08-07T18:57:41.028Z,13.53
2022-08-07T19:00:54.247Z,13.30
2022-08-07T19:04:00.329Z,13.43
2022-08-07T19:07:08.389Z,13.60
2022-08-07T19:10:18.662Z,13.33
2022-08-07T19:13:23.050Z,13.13
2022-08-07T19:17:07.724Z,13.63
2022-08-07T19:20:29.635Z,13.93
2022-08-07T19:23:57.999Z,12.50
2022-08-07T19:28:58.336Z,13.20
2022-08-07T19:31:00.298Z,13.57
2022-08-07T19:33:57.989Z,13.87
2022-08-07T19:37:10.336Z,13.87
2022-08-07T19:40:31.772Z,14.10
2022-08-07T19:43:48.833Z,13.10
2022-08-07T19:46:55.524Z,13.80
2022-08-07T19:50:02.795Z,13.40
2022-08-07T19:54:44.118Z,13.03
2022-08-07T19:58:00.840Z,13.00
2022-08-07T19:59:59.726Z,13.80
2022-08-07T20:03:01.356Z,13.00
2022-08-07T20:06:04.506Z,13.23
2022-08-07T20:09:07.480Z,13.40
2022-08-07T20:12:34.389Z,12.80
2022-08-07T20:15:37.421Z,13.70
2022-08-07T20:18:40.689Z,13.37
2022-08-07T20:21:46.946Z,13.27
2022-08-07T20:24:54.527Z,12.93
2022-08-07T20:27:58.792Z,13.30
2022-08-07T20:31:21.089Z,13.90
2022-08-07T20:34:49.502Z,13.10
2022-08-07T20:37:59.328Z,13.67
2022-08-07T20:41:03.867Z,14.13
2022-08-07T20:44:12.606Z,14.97
2022-08-07T20:47:17.930Z,14.13
2022-08-07T20:50:29.093Z,13.80
2022-08-07T20:54:03.370Z,13.27
2022-08-07T20:56:56.632Z,13.60
2022-08-07T21:00:09.248Z,14.03
2022-08-07T21:03:16.289Z,14.30
2022-08-07T21:06:25.807Z,13.43
2022-08-07T21:09:30.054Z,14.23
2022-08-07T21:12:52.985Z,14.27
2022-08-07T21:16:00.590Z,13.80
2022-08-07T21:19:02.917Z,14.77
2022-08-07T21:22:05.524Z,13.83
2022-08-07T21:25:17.092Z,14.50
2022-08-07T21:28:50.316Z,13.30
2022-08-07T21:32:46.840Z,13.40
2022-08-07T21:35:34.923Z,14.30
2022-08-07T21:39:46.505Z,13.80
2022-08-07T21:42:48.632Z,13.97
2022-08-07T21:46:24.574Z,14.27
2022-08-07T21:49:40.755Z,13.80
2022-08-07T21:53:08.362Z,13.33
2022-08-07T21:56:39.834Z,13.33
2022-08-07T22:00:05.083Z,13.43
2022-08-07T22:03:10.914Z,13.27
2022-08-07T22:06:30.323Z,13.20
2022-08-07T22:09:55.479Z,13.43
2022-08-07T22:13:02.580Z,13.23
2022-08-07T22:16:43.137Z,13.43
2022-08-07T22:19:39.501Z,12.73
2022-08-07T22:22:45.788Z,12.73
2022-08-07T22:26:13.352Z,13.63
2022-08-07T22:29:47.387Z,12.47
2022-08-07T22:32:51.277Z,13.73
2022-08-07T22:36:02.110Z,13.33
2022-08-07T22:39:26.103Z,13.60
2022-08-07T22:42:31.812Z,13.93
2022-08-07T22:46:40.855Z,12.73
2022-08-07T22:49:11.159Z,13.20
2022-08-07T22:52:36.979Z,13.43
2022-08-07T22:55:52.488Z,12.63
2022-08-07T22:58:57.263Z,13.63
2022-08-07T23:02:31.901Z,12.90
2022-08-07T23:06:07.291Z,12.73
2022-08-07T23:10:04.562Z,13.50
2022-08-07T23:13:04.924Z,14.10
2022-08-07T23:16:46.877Z,13.17
2022-08-07T23:20:21.427Z,13.67
2022-08-07T23:24:05.886Z,13.67
2022-08-07T23:27:33.659Z,13.43
2022-08-07T23:30:43.293Z,13.57
2022-08-07T23:34:34.963Z,14.10
2022-08-07T23:37:34.770Z,13.00
2022-08-07T23:40:49.307Z,14.23
2022-08-07T23:44:11.482Z,13.10
2022-08-07T23:47:29.683Z,12.90
2022-08-07T23:50:34.672Z,13.30
2022-08-07T23:53:56.269Z,13.20
2022-08-07T23:57:03.882Z,13.40
